Time;durP1;ratioP1;P1;durP2;ratioP2;P2;SDS_P1;SDS_P2;PMS_P1;PMS_P2;Temp;Humidity;BMP_temperature;BMP_pressure;BME280_temperature;BME280_humidity;BME280_pressure;Samples;Min_cycle;Max_cycle;Signal;HPM_P1;HPM_P2
2024/01/02 00:01:51;;;;;;;0.20;0.20;;;;;;;8.17;67.36;101212.53;4967689;28;20101;-90
2024/01/02 00:04:16;;;;;;;0.20;0.20;;;;;;;8.22;68.03;101233.84;4951488;29;20027;-89
2024/01/02 00:06:42;;;;;;;0.20;0.20;;;;;;;8.10;67.73;101223.06;4935524;29;20050;-90
2024/01/02 00:09:07;;;;;;;0.20;0.20;;;;;;;8.15;67.49;101231.47;4951104;29;20031;-88
2024/01/02 00:11:33;;;;;;;0.20;0.20;;;;;;;8.08;67.92;101219.69;4919730;29;20035;-89
2024/01/02 00:13:58;;;;;;;0.20;0.20;;;;;;;8.21;67.69;101239.03;4951035;29;20424;-92
2024/01/02 00:16:24;;;;;;;0.10;0.10;;;;;;;8.29;67.45;101240.50;4951285;29;20413;-90
2024/01/02 00:18:50;;;;;;;0.20;0.20;;;;;;;8.25;67.42;101227.75;4919671;29;20412;-91
2024/01/02 00:21:15;;;;;;;0.20;0.20;;;;;;;8.33;67.58;101236.94;4951207;29;20078;-91
2024/01/02 00:23:41;;;;;;;0.20;0.20;;;;;;;8.34;66.72;101241.22;4935266;29;20035;-91
2024/01/02 00:26:07;;;;;;;0.20;0.20;;;;;;;8.34;67.37;101245.50;4967527;28;20058;-90
2024/01/02 00:28:32;;;;;;;0.20;0.20;;;;;;;8.28;66.91;101243.16;4919433;28;20031;-90
2024/01/02 00:30:58;;;;;;;0.10;0.10;;;;;;;8.31;66.56;101249.03;4954523;29;20023;-89
2024/01/02 00:33:24;;;;;;;0.20;0.20;;;;;;;8.27;67.18;101252.59;4956019;29;20031;-90
2024/01/02 00:35:49;;;;;;;0.20;0.20;;;;;;;8.34;67.13;101243.81;4970740;28;20032;-89
2024/01/02 00:38:15;;;;;;;0.20;0.20;;;;;;;8.28;66.62;101238.81;4954719;29;20062;-91
2024/01/02 00:40:40;;;;;;;0.20;0.20;;;;;;;8.25;66.38;101233.75;4955878;29;20508;-90
2024/01/02 00:43:06;;;;;;;0.20;0.20;;;;;;;8.15;66.35;101219.44;4970592;28;20081;-89
2024/01/02 00:45:31;;;;;;;0.20;0.20;;;;;;;8.27;66.77;101242.31;4970874;28;20027;-89
2024/01/02 00:47:57;;;;;;;0.20;0.20;;;;;;;8.24;67.49;101226.91;4938669;29;20038;-90
2024/01/02 00:50:22;;;;;;;0.20;0.20;;;;;;;8.38;66.76;101244.59;4938562;29;20031;-90
2024/01/02 00:52:48;;;;;;;0.20;0.20;;;;;;;8.39;67.27;101233.38;4970030;28;20035;-91
2024/01/02 00:55:15;;;;;;;0.20;0.20;;;;;;;8.32;67.52;101237.00;4938496;29;20031;-90
2024/01/02 00:57:40;;;;;;;0.20;0.20;;;;;;;8.42;67.57;101232.44;4922934;29;20038;-91
2024/01/02 01:00:06;;;;;;;0.10;0.10;;;;;;;8.38;67.10;101218.81;4970378;28;20090;-89
2024/01/02 01:02:32;;;;;;;0.20;0.20;;;;;;;8.45;67.12;101235.75;4970433;28;20028;-90
2024/01/02 01:04:58;;;;;;;0.20;0.20;;;;;;;8.43;67.66;101234.13;4954863;29;20039;-90
2024/01/02 01:07:23;;;;;;;0.20;0.20;;;;;;;8.41;67.21;101236.75;4954199;29;20069;-89
2024/01/02 01:09:49;;;;;;;0.10;0.10;;;;;;;8.48;68.12;101235.69;4955982;29;20031;-89
2024/01/02 01:12:14;;;;;;;0.20;0.20;;;;;;;8.48;67.64;101229.69;4954576;29;20122;-90
2024/01/02 01:14:40;;;;;;;0.20;0.20;;;;;;;8.40;67.00;101224.75;4954148;29;20058;-88
2024/01/02 01:17:06;;;;;;;0.10;0.10;;;;;;;8.40;67.17;101221.34;4922223;29;20031;-89
2024/01/02 01:19:32;;;;;;;0.20;0.20;;;;;;;8.30;67.37;101221.56;4938223;29;20039;-89
2024/01/02 01:21:57;;;;;;;0.20;0.20;;;;;;;8.08;68.20;101186.19;4937934;29;20521;-91
2024/01/02 01:24:23;;;;;;;0.20;0.20;;;;;;;8.17;68.36;101220.25;4954360;29;20035;-89
2024/01/02 01:26:52;;;;;;;0.10;0.10;;;;;;;8.11;68.48;101225.59;4954171;29;20453;-89
2024/01/02 01:29:20;;;;;;;0.20;0.20;;;;;;;8.10;68.27;101223.06;4923404;29;20035;-92
2024/01/02 01:31:46;;;;;;;0.20;0.20;;;;;;;8.07;68.50;101229.16;4938493;29;20085;-90
2024/01/02 01:34:11;;;;;;;0.20;0.20;;;;;;;8.19;68.08;101233.09;4938163;29;20114;-90
2024/01/02 01:36:37;;;;;;;0.10;0.10;;;;;;;8.03;67.76;101228.38;4937789;29;20169;-89
2024/01/02 01:39:03;;;;;;;0.20;0.20;;;;;;;8.03;67.93;101232.69;4938068;29;20142;-90
2024/01/02 01:41:28;;;;;;;0.20;0.20;;;;;;;7.96;67.70;101226.00;4937128;29;20034;-89
2024/01/02 01:43:54;;;;;;;0.20;0.20;;;;;;;8.02;68.63;101223.28;4937923;29;20031;-88
2024/01/02 01:46:20;;;;;;;0.20;0.20;;;;;;;8.05;67.97;101210.28;4938049;29;20027;-90
2024/01/02 01:48:45;;;;;;;0.10;0.10;;;;;;;8.11;67.59;101219.59;4954753;29;20070;-90
2024/01/02 01:51:11;;;;;;;0.20;0.20;;;;;;;8.04;68.03;101219.75;4936969;29;20047;-89
2024/01/02 01:53:36;;;;;;;0.10;0.10;;;;;;;8.09;67.48;101221.38;4937649;29;20035;-89
2024/01/02 01:56:02;;;;;;;0.10;0.10;;;;;;;8.11;67.99;101210.13;4937592;29;20038;-90
2024/01/02 01:58:28;;;;;;;0.10;0.10;;;;;;;8.03;67.49;101196.59;4937514;29;20035;-89
2024/01/02 02:00:54;;;;;;;0.20;0.20;;;;;;;7.97;67.03;101189.09;4953526;29;20031;-90
2024/01/02 02:03:19;;;;;;;0.20;0.20;;;;;;;8.08;67.90;101189.59;4937170;29;20035;-91
2024/01/02 02:05:45;;;;;;;0.20;0.20;;;;;;;8.17;66.99;101198.81;4937132;29;20042;-90
2024/01/02 02:08:11;;;;;;;0.10;0.10;;;;;;;8.10;66.74;101187.81;4937193;29;20031;-90
2024/01/02 02:10:36;;;;;;;0.20;0.20;;;;;;;8.10;66.61;101198.13;4953355;29;20038;-89
2024/01/02 02:13:02;;;;;;;0.10;0.10;;;;;;;8.13;66.41;101192.88;4953053;29;20079;-89
2024/01/02 02:15:28;;;;;;;0.20;0.20;;;;;;;8.09;66.77;101186.13;4937177;29;20106;-89
2024/01/02 02:17:53;;;;;;;0.20;0.20;;;;;;;8.01;66.42;101170.06;4952916;29;20287;-90
2024/01/02 02:20:19;;;;;;;0.20;0.20;;;;;;;8.08;66.78;101184.44;4952812;29;20038;-89
2024/01/02 02:22:49;;;;;;;0.20;0.20;;;;;;;8.17;66.80;101184.19;4921215;29;20035;-89
2024/01/02 02:25:15;;;;;;;0.10;0.10;;;;;;;8.05;66.21;101163.91;4953061;29;20030;-90
2024/01/02 02:27:41;;;;;;;0.20;0.20;;;;;;;8.22;66.08;101184.88;4954258;28;20027;-91
2024/01/02 02:30:07;;;;;;;0.10;0.10;;;;;;;8.25;65.44;101187.34;4952799;29;20118;-90
2024/01/02 02:32:32;;;;;;;0.20;0.20;;;;;;;8.07;65.63;101162.16;4952822;29;20066;-89
2024/01/02 02:34:58;;;;;;;0.20;0.20;;;;;;;8.29;64.82;101178.66;4952242;29;20137;-90
2024/01/02 02:37:23;;;;;;;0.20;0.20;;;;;;;8.29;65.22;101185.53;4952922;29;20029;-92
2024/01/02 02:39:49;;;;;;;0.20;0.20;;;;;;;8.17;64.65;101176.44;4953766;28;20047;-88
2024/01/02 02:42:15;;;;;;;0.10;0.10;;;;;;;8.28;64.74;101191.59;4952291;29;20063;-91
2024/01/02 02:44:42;;;;;;;0.20;0.20;;;;;;;8.25;64.89;101184.75;4952655;29;20032;-89
2024/01/02 02:47:08;;;;;;;0.20;0.20;;;;;;;8.10;64.87;101161.22;4952277;29;20950;-90
2024/01/02 02:49:34;;;;;;;0.20;0.20;;;;;;;8.23;65.01;101173.66;4952414;29;20027;-89
2024/01/02 02:52:00;;;;;;;0.20;0.20;;;;;;;8.35;64.93;101185.38;4952383;28;20035;-90
2024/01/02 02:54:25;;;;;;;0.20;0.20;;;;;;;8.32;64.38;101188.84;4952466;29;20034;-89
2024/01/02 02:56:51;;;;;;;0.20;0.20;;;;;;;8.34;64.37;101181.94;4936465;29;20031;-90
2024/01/02 02:59:16;;;;;;;0.20;0.20;;;;;;;8.28;64.93;101182.13;4953424;29;20031;-89
2024/01/02 03:01:42;;;;;;;0.20;0.20;;;;;;;8.18;64.98;101183.28;4936329;29;20050;-89
2024/01/02 03:04:07;;;;;;;0.20;0.20;;;;;;;8.12;64.89;101170.56;4952042;29;20042;-91
2024/01/02 03:06:33;;;;;;;0.20;0.20;;;;;;;8.22;64.60;101177.13;4953255;28;20035;-89
2024/01/02 03:08:58;;;;;;;0.20;0.20;;;;;;;8.16;64.95;101169.59;4936612;29;20027;-90
2024/01/02 03:11:24;;;;;;;0.20;0.20;;;;;;;8.26;64.89;101196.78;4952145;29;20027;-91
2024/01/02 03:13:49;;;;;;;0.20;0.20;;;;;;;8.21;64.93;101193.50;4951780;29;20074;-88
2024/01/02 03:16:15;;;;;;;0.10;0.10;;;;;;;8.32;65.15;101194.00;4951635;29;20082;-90
2024/01/02 03:18:41;;;;;;;0.20;0.20;;;;;;;8.26;64.44;101168.44;4935853;29;20102;-90
2024/01/02 03:21:08;;;;;;;0.20;0.20;;;;;;;8.29;64.60;101163.19;4936254;29;20031;-90
2024/01/02 03:23:34;;;;;;;0.20;0.20;;;;;;;8.30;64.66;101180.31;4936219;29;20525;-88
2024/01/02 03:26:00;;;;;;;0.20;0.20;;;;;;;8.26;65.17;101172.75;4951792;29;20059;-89
2024/01/02 03:28:26;;;;;;;0.20;0.20;;;;;;;8.30;65.20;101167.44;4920007;29;20063;-90
2024/01/02 03:30:52;;;;;;;0.20;0.20;;;;;;;8.41;64.48;101174.03;4951953;29;20023;-91
2024/01/02 03:33:17;;;;;;;0.20;0.20;;;;;;;8.27;64.79;101154.66;4951596;29;20023;-90
2024/01/02 03:35:44;;;;;;;0.10;0.10;;;;;;;8.38;64.72;101180.13;4952743;28;20035;-91
2024/01/02 03:38:09;;;;;;;0.20;0.20;;;;;;;8.38;65.02;101187.03;4951398;29;20066;-90
2024/01/02 03:40:35;;;;;;;0.20;0.20;;;;;;;8.33;64.87;101175.06;4935685;29;20035;-89
2024/01/02 03:43:00;;;;;;;0.20;0.20;;;;;;;8.27;65.03;101164.97;4951702;29;20027;-89
2024/01/02 03:45:26;;;;;;;0.20;0.20;;;;;;;8.26;65.56;101165.84;4951524;29;20031;-90
2024/01/02 03:47:52;;;;;;;0.20;0.20;;;;;;;8.43;65.44;101185.13;4951058;29;20059;-88
2024/01/02 03:50:17;;;;;;;0.20;0.20;;;;;;;8.39;65.87;101191.28;4952794;29;20031;-91
2024/01/02 03:52:43;;;;;;;0.20;0.20;;;;;;;8.13;65.57;101172.25;4951573;29;20075;-90
2024/01/02 03:55:08;;;;;;;0.20;0.20;;;;;;;8.20;65.21;101185.81;4919833;29;20031;-89
2024/01/02 03:57:34;;;;;;;0.10;0.10;;;;;;;8.22;65.61;101178.88;4951774;29;20042;-90
2024/01/02 04:00:00;;;;;;;0.10;0.10;;;;;;;8.15;66.14;101196.25;4935713;29;20555;-87
2024/01/02 04:02:25;;;;;;;0.20;0.20;;;;;;;8.16;66.92;101189.34;4951451;29;20027;-88
2024/01/02 04:04:51;;;;;;;0.20;0.20;;;;;;;8.30;65.78;101190.63;4921164;29;20054;-89
2024/01/02 04:07:16;;;;;;;0.20;0.20;;;;;;;8.23;64.73;101194.28;4955557;29;20054;-89
2024/01/02 04:09:42;;;;;;;0.10;0.10;;;;;;;8.22;64.48;101192.59;4955730;29;20094;-90
2024/01/02 04:12:07;;;;;;;0.20;0.20;;;;;;;8.17;64.49;101186.75;4955502;29;20031;-90
2024/01/02 04:14:33;;;;;;;0.20;0.20;;;;;;;8.19;64.78;101190.13;4955313;29;20047;-90
2024/01/02 04:16:59;;;;;;;0.20;0.20;;;;;;;8.17;65.18;101186.75;4939016;29;20527;-91
2024/01/02 04:19:24;;;;;;;0.10;0.10;;;;;;;8.29;64.88;101204.44;4955383;29;20430;-89
2024/01/02 04:21:50;;;;;;;0.10;0.10;;;;;;;8.09;65.18;101186.13;4939353;29;20097;-87
2024/01/02 04:24:15;;;;;;;0.20;0.20;;;;;;;7.96;65.60;101206.28;4939463;29;20031;-91
2024/01/02 04:26:41;;;;;;;0.20;0.20;;;;;;;7.98;65.66;101203.66;4955429;29;20042;-87
2024/01/02 04:29:06;;;;;;;0.20;0.20;;;;;;;7.97;65.28;101192.50;4936848;29;20064;-81
2024/01/02 04:31:32;;;;;;;0.10;0.10;;;;;;;8.09;64.94;101206.75;4954126;29;20082;-83
2024/01/02 04:33:57;;;;;;;0.10;0.10;;;;;;;7.96;65.21;101206.28;4938212;29;20039;-84
2024/01/02 04:36:25;;;;;;;0.17;0.17;;;;;;;7.90;65.17;101197.88;4954253;29;20489;-85
2024/01/02 04:38:52;;;;;;;0.20;0.20;;;;;;;8.14;65.04;101216.91;4948967;29;20042;-84
2024/01/02 04:41:18;;;;;;;0.20;0.20;;;;;;;8.05;64.68;101199.97;4919307;29;20486;-84
2024/01/02 04:43:44;;;;;;;0.20;0.20;;;;;;;8.13;64.24;101208.34;4919368;29;20035;-84
2024/01/02 04:46:10;;;;;;;0.10;0.10;;;;;;;8.16;64.22;101203.13;4918520;29;20043;-84
2024/01/02 04:48:35;;;;;;;0.20;0.20;;;;;;;8.20;64.64;101211.59;4919168;29;20024;-84
2024/01/02 04:51:02;;;;;;;0.17;0.17;;;;;;;8.19;63.79;101197.00;4934894;29;20031;-84
2024/01/02 04:53:27;;;;;;;0.10;0.10;;;;;;;8.27;63.91;101206.22;4918934;29;20031;-84
2024/01/02 04:55:53;;;;;;;0.20;0.20;;;;;;;8.25;64.14;101217.44;4934360;29;20062;-85
2024/01/02 04:58:19;;;;;;;0.20;0.20;;;;;;;8.20;63.87;101204.69;4918741;29;20086;-85
2024/01/02 05:00:44;;;;;;;0.20;0.20;;;;;;;8.24;63.97;101198.53;4935412;29;20063;-85
2024/01/02 05:03:10;;;;;;;0.10;0.10;;;;;;;8.17;64.23;101199.66;4935103;29;20482;-86
2024/01/02 05:05:35;;;;;;;0.13;0.13;;;;;;;8.17;63.70;101189.34;4934732;29;20027;-86
2024/01/02 05:08:01;;;;;;;0.10;0.10;;;;;;;8.27;63.62;101185.59;4934476;29;20035;-85
2024/01/02 05:10:26;;;;;;;0.20;0.20;;;;;;;8.31;63.99;101197.47;4934228;29;20039;-86
2024/01/02 05:12:52;;;;;;;0.20;0.20;;;;;;;8.20;62.85;101173.78;4934202;29;20498;-86
2024/01/02 05:15:18;;;;;;;0.20;0.20;;;;;;;8.13;62.90;101154.22;4918325;29;20521;-86
2024/01/02 05:17:44;;;;;;;0.20;0.20;;;;;;;8.32;63.03;101188.00;4948257;29;20064;-86
2024/01/02 05:20:10;;;;;;;0.20;0.20;;;;;;;8.32;63.39;101194.00;4948047;29;20529;-85
2024/01/02 05:22:35;;;;;;;0.20;0.20;;;;;;;8.37;62.74;101196.50;4946231;29;20465;-94
2024/01/02 05:25:01;;;;;;;0.20;0.20;;;;;;;8.08;62.52;101147.53;4954457;29;20032;-86
2024/01/02 05:27:26;;;;;;;0.20;0.20;;;;;;;8.37;62.73;101195.66;4937215;29;20377;-89
2024/01/02 05:29:52;;;;;;;0.20;0.20;;;;;;;8.31;62.44;101184.59;4932635;29;20035;-87
2024/01/02 05:32:17;;;;;;;0.10;0.10;;;;;;;8.42;62.80;101197.19;4921259;29;20087;-85
2024/01/02 05:34:43;;;;;;;0.20;0.20;;;;;;;8.32;62.21;101180.28;4940122;29;20031;-85
2024/01/02 05:37:09;;;;;;;0.20;0.20;;;;;;;8.39;62.22;101186.13;4933750;29;20490;-85
2024/01/02 05:39:34;;;;;;;0.20;0.20;;;;;;;8.43;61.94;101179.97;4939634;29;20062;-87
2024/01/02 05:42:00;;;;;;;0.20;0.20;;;;;;;8.35;62.18;101182.78;4958424;28;20027;-88
2024/01/02 05:44:25;;;;;;;0.20;0.20;;;;;;;8.25;63.03;101187.34;4951076;29;20090;-85
2024/01/02 05:46:51;;;;;;;0.20;0.20;;;;;;;8.23;62.87;101181.41;4955151;28;20039;-89
2024/01/02 05:49:16;;;;;;;0.20;0.20;;;;;;;8.33;63.07;101189.69;4953303;29;20035;-85
2024/01/02 05:51:42;;;;;;;0.20;0.20;;;;;;;8.44;62.38;101195.41;4954819;29;20027;-89
2024/01/02 05:54:07;;;;;;;0.20;0.20;;;;;;;8.43;62.47;101195.44;4953934;29;20024;-88
2024/01/02 05:56:33;;;;;;;0.20;0.20;;;;;;;8.40;62.71;101198.13;4953304;28;20066;-88
2024/01/02 05:58:58;;;;;;;0.20;0.20;;;;;;;8.32;62.14;101194.00;4969729;28;20508;-83
2024/01/02 06:01:24;;;;;;;0.20;0.20;;;;;;;8.49;62.16;101200.44;4968952;28;20034;-84
2024/01/02 06:03:49;;;;;;;0.20;0.20;;;;;;;8.38;61.89;101203.34;4952413;29;20031;-84
2024/01/02 06:06:15;;;;;;;0.20;0.20;;;;;;;8.38;62.07;101207.66;4950655;29;20035;-85
2024/01/02 06:08:41;;;;;;;0.20;0.20;;;;;;;8.41;61.69;101203.22;4952340;29;20023;-84
2024/01/02 06:11:08;;;;;;;0.20;0.20;;;;;;;8.47;61.93;101228.84;4953724;28;20023;-91
2024/01/02 06:13:33;;;;;;;0.20;0.20;;;;;;;8.53;62.14;101222.63;4941845;28;20051;-83
2024/01/02 06:16:00;;;;;;;0.20;0.20;;;;;;;8.42;61.86;101216.97;4953749;28;20035;-88
2024/01/02 06:18:26;;;;;;;0.20;0.20;;;;;;;8.29;61.78;101193.28;4966552;28;20027;-83
2024/01/02 06:20:51;;;;;;;0.20;0.20;;;;;;;8.40;61.59;101217.03;4950607;29;20525;-93
2024/01/02 06:23:17;;;;;;;0.20;0.20;;;;;;;8.39;61.90;101214.50;4921794;29;20027;-89
2024/01/02 06:25:43;;;;;;;0.20;0.20;;;;;;;8.42;61.54;101216.97;4951613;29;20035;-86
2024/01/02 06:28:08;;;;;;;0.20;0.20;;;;;;;8.45;62.07;101235.75;4952115;28;20047;-87
2024/01/02 06:30:34;;;;;;;0.20;0.20;;;;;;;8.45;61.72;101240.91;4954023;29;20377;-87
2024/01/02 06:32:59;;;;;;;0.20;0.20;;;;;;;8.49;61.45;101241.69;4951665;29;20036;-87
2024/01/02 06:35:25;;;;;;;0.20;0.20;;;;;;;8.47;61.20;101252.03;4945722;28;20394;-87
2024/01/02 06:37:51;;;;;;;0.20;0.20;;;;;;;8.39;61.20;101222.22;4948521;28;20507;-85
2024/01/02 06:40:17;;;;;;;0.20;0.20;;;;;;;8.47;60.93;101248.63;4934105;29;20502;-90
2024/01/02 06:42:42;;;;;;;0.20;0.20;;;;;;;8.57;61.04;101256.03;4950213;28;20040;-90
2024/01/02 06:45:08;;;;;;;0.20;0.20;;;;;;;8.50;60.99;101233.91;4936055;29;20055;-84
2024/01/02 06:47:34;;;;;;;0.20;0.20;;;;;;;8.52;60.46;101251.91;4944262;29;20039;-88
2024/01/02 06:50:00;;;;;;;0.20;0.20;;;;;;;8.58;61.06;101262.03;4952386;29;20528;-84
2024/01/02 06:52:26;;;;;;;0.20;0.20;;;;;;;8.48;60.69;101235.69;4936245;29;20037;-85
2024/01/02 06:54:51;;;;;;;0.20;0.20;;;;;;;8.51;60.28;101235.56;4951536;29;20035;-87
2024/01/02 06:57:17;;;;;;;0.20;0.20;;;;;;;8.67;59.89;101256.59;4940883;29;20035;-84
2024/01/02 06:59:44;;;;;;;0.10;0.10;;;;;;;8.77;59.95;101263.16;4933211;29;20030;-87
2024/01/02 07:02:09;;;;;;;0.20;0.20;;;;;;;8.68;59.63;101237.66;4950250;28;20774;-87
2024/01/02 07:04:37;;;;;;;0.20;0.20;;;;;;;8.74;59.59;101255.50;4932296;29;20478;-88
2024/01/02 07:07:03;;;;;;;0.20;0.20;;;;;;;8.74;59.07;101255.50;4932516;29;20027;-87
2024/01/02 07:09:28;;;;;;;0.20;0.20;;;;;;;8.77;59.27;101237.38;4915953;29;20030;-88
2024/01/02 07:11:54;;;;;;;0.10;0.10;;;;;;;8.77;59.31;101259.75;4932192;29;20031;-89
2024/01/02 07:14:19;;;;;;;0.20;0.20;;;;;;;8.75;59.12;101249.47;4943387;29;20749;-88
2024/01/02 07:16:45;;;;;;;0.20;0.20;;;;;;;8.72;58.93;101248.69;4951826;28;20035;-86
2024/01/02 07:19:10;;;;;;;0.20;0.20;;;;;;;8.78;59.45;101254.53;4932909;29;20143;-86
2024/01/02 07:21:36;;;;;;;0.20;0.20;;;;;;;8.85;59.31;101250.03;4946093;29;20474;-87
2024/01/02 07:24:01;;;;;;;0.20;0.20;;;;;;;8.91;58.61;101254.97;4950794;28;20035;-91
2024/01/02 07:26:27;;;;;;;0.20;0.20;;;;;;;8.99;57.79;101253.00;4934420;28;20066;-87
2024/01/02 07:28:52;;;;;;;0.20;0.20;;;;;;;9.00;57.52;101269.31;4937011;29;20119;-87
2024/01/02 07:31:19;;;;;;;0.17;0.17;;;;;;;9.12;57.17;101274.06;4932100;29;20036;-87
2024/01/02 07:33:45;;;;;;;0.20;0.20;;;;;;;9.11;57.36;101277.56;4932319;29;20023;-87
2024/01/02 07:36:10;;;;;;;0.20;0.20;;;;;;;9.03;57.67;101274.38;4948376;29;20062;-91
2024/01/02 07:38:36;;;;;;;0.20;0.20;;;;;;;8.97;57.76;101272.00;4932162;29;20035;-91
2024/01/02 07:41:01;;;;;;;0.20;0.20;;;;;;;8.96;57.61;101272.91;4933262;29;20032;-89
2024/01/02 07:43:28;;;;;;;0.20;0.20;;;;;;;8.84;57.83;101268.94;4933892;29;20023;-86
2024/01/02 07:45:55;;;;;;;0.20;0.20;;;;;;;8.74;58.26;101255.50;4932792;29;20031;-88
2024/01/02 07:48:20;;;;;;;0.20;0.20;;;;;;;8.75;57.93;101261.50;4921228;29;20039;-92
2024/01/02 07:50:46;;;;;;;0.20;0.20;;;;;;;8.88;58.05;101283.47;4950272;29;20046;-90
2024/01/02 07:53:11;;;;;;;0.20;0.20;;;;;;;8.74;57.67;101273.56;4951613;29;20042;-86
2024/01/02 07:55:37;;;;;;;0.20;0.20;;;;;;;8.73;57.95;101287.34;4945721;28;20032;-90
2024/01/02 07:58:04;;;;;;;0.20;0.20;;;;;;;8.88;57.88;101286.88;4941610;29;20116;-92
2024/01/02 08:00:29;;;;;;;0.20;0.20;;;;;;;8.84;58.23;101295.59;4952097;29;20023;-92
2024/01/02 08:02:55;;;;;;;0.20;0.20;;;;;;;8.90;58.16;101289.41;4948147;29;20023;-89
2024/01/02 08:05:20;;;;;;;0.20;0.20;;;;;;;8.97;57.90;101295.22;4932493;29;20046;-86
2024/01/02 08:07:46;;;;;;;0.20;0.20;;;;;;;9.02;57.14;101280.44;4939317;29;20035;-87
2024/01/02 08:10:11;;;;;;;0.20;0.20;;;;;;;9.12;56.97;101294.72;4950803;28;20043;-92
2024/01/02 08:12:37;;;;;;;0.20;0.20;;;;;;;9.02;56.22;101272.69;4932805;29;20028;-92
2024/01/02 08:15:03;;;;;;;0.20;0.20;;;;;;;9.31;56.96;101305.31;4933523;29;20521;-87
2024/01/02 08:17:29;;;;;;;0.20;0.20;;;;;;;9.45;57.73;101292.78;4937518;29;20027;-92
2024/01/02 08:19:55;;;;;;;0.20;0.20;;;;;;;9.68;55.25;101310.09;4941415;29;20545;-92
2024/01/02 08:22:20;;;;;;;0.20;0.20;;;;;;;9.82;55.14;101322.53;4940147;29;20036;-88
2024/01/02 08:24:46;;;;;;;0.20;0.20;;;;;;;9.87;54.57;101315.47;4951373;29;20659;-91
2024/01/02 08:27:11;;;;;;;0.20;0.20;;;;;;;9.95;53.92;101311.72;4968875;28;20027;-90
2024/01/02 08:29:37;;;;;;;0.20;0.20;;;;;;;9.94;53.52;101312.63;4951325;28;20035;-88
2024/01/02 08:32:03;;;;;;;0.20;0.20;;;;;;;10.14;52.13;101339.50;4942529;29;20032;-89
2024/01/02 08:34:28;;;;;;;0.20;0.20;;;;;;;10.21;52.02;101333.19;4940653;29;20425;-93
2024/01/02 08:36:54;;;;;;;0.20;0.20;;;;;;;10.30;51.25;101322.56;4949949;29;20541;-86
2024/01/02 08:39:19;;;;;;;0.20;0.20;;;;;;;10.35;51.29;101328.41;4950081;28;20035;-86
2024/01/02 08:41:45;;;;;;;0.20;0.20;;;;;;;10.40;50.59;101336.00;4948359;28;20035;-90
2024/01/02 08:44:10;;;;;;;0.10;0.10;;;;;;;10.43;50.87;101334.16;4940098;29;20061;-92
2024/01/02 08:46:36;;;;;;;0.20;0.20;;;;;;;10.49;50.25;101336.50;4935895;29;20680;-86
2024/01/02 08:49:02;;;;;;;0.20;0.20;;;;;;;10.53;50.80;101325.16;4939809;29;20024;-91
2024/01/02 08:51:28;;;;;;;0.10;0.10;;;;;;;10.49;50.85;101315.78;4957131;28;20031;-91
2024/01/02 08:53:54;;;;;;;0.20;0.20;;;;;;;10.61;50.65;101307.56;4946548;29;20043;-93
2024/01/02 08:56:21;;;;;;;0.20;0.20;;;;;;;10.52;50.48;101299.31;4925714;28;20032;-87
2024/01/02 08:58:46;;;;;;;0.20;0.20;;;;;;;10.72;50.47;101296.00;4942490;29;20142;-86
2024/01/02 09:01:12;;;;;;;0.20;0.20;;;;;;;10.85;49.34;101302.38;4953242;29;20159;-90
2024/01/02 09:03:37;;;;;;;0.20;0.20;;;;;;;10.90;49.09;101297.84;4938356;29;20027;-90
2024/01/02 09:06:03;;;;;;;0.20;0.20;;;;;;;10.94;49.70;101291.66;4955642;29;20182;-90
2024/01/02 09:08:29;;;;;;;0.20;0.20;;;;;;;10.99;48.02;101284.53;4923654;29;20494;-87
2024/01/02 09:10:56;;;;;;;0.10;0.10;;;;;;;11.13;47.58;101297.78;4929387;29;20037;-92
2024/01/02 09:13:21;;;;;;;0.20;0.20;;;;;;;11.06;46.41;101292.91;4958894;29;20047;-93
2024/01/02 09:15:47;;;;;;;0.10;0.10;;;;;;;11.10;45.51;101287.53;4957669;29;20061;-92
2024/01/02 09:18:13;;;;;;;0.20;0.20;;;;;;;11.23;45.08;101274.94;4950832;29;20930;-92
2024/01/02 09:20:38;;;;;;;0.20;0.20;;;;;;;11.30;45.61;101275.50;4950651;29;20087;-89
2024/01/02 09:23:04;;;;;;;0.20;0.20;;;;;;;11.39;45.32;101265.59;4945497;29;20465;-91
2024/01/02 09:25:30;;;;;;;0.20;0.20;;;;;;;11.40;44.78;101263.84;4933144;29;20141;-89
2024/01/02 09:27:58;;;;;;;0.20;0.20;;;;;;;11.40;44.14;101263.84;4947130;29;20034;-90
2024/01/02 09:30:23;;;;;;;0.20;0.20;;;;;;;11.46;44.51;101253.22;4955679;29;20082;-91
2024/01/02 09:32:50;;;;;;;0.20;0.20;;;;;;;11.15;44.61;101233.81;4936199;29;20046;-88
2024/01/02 09:35:38;;;;;;;0.20;0.20;;;;;;;11.44;43.72;101244.69;4947806;29;20035;-89
2024/01/02 09:38:04;;;;;;;0.20;0.20;;;;;;;11.43;44.26;101238.66;4941511;28;20393;-92
2024/01/02 09:40:58;;;;;;;0.20;0.20;;;;;;;11.44;43.88;101244.69;4939398;28;20027;-89
2024/01/02 09:43:41;;;;;;;0.20;0.20;;;;;;;11.56;43.85;101244.16;4944897;29;20102;-88
2024/01/02 09:46:21;;;;;;;0.20;0.20;;;;;;;11.63;44.46;101239.56;4951470;29;20074;-85
2024/01/02 09:48:57;;;;;;;0.20;0.20;;;;;;;11.66;43.50;101245.44;4953547;29;20035;-90
2024/01/02 09:52:00;;;;;;;0.20;0.20;;;;;;;11.61;43.22;101247.41;4953538;29;20047;-89
2024/01/02 09:54:39;;;;;;;0.20;0.20;;;;;;;11.61;42.67;101210.28;4950529;29;20068;-88
2024/01/02 09:57:25;;;;;;;0.20;0.20;;;;;;;11.78;43.00;101234.53;4955236;29;20035;-91
2024/01/02 09:59:59;;;;;;;0.20;0.20;;;;;;;12.00;42.36;101229.28;4955879;28;20054;-89
2024/01/02 10:02:52;;;;;;;0.20;0.20;;;;;;;11.97;42.53;101215.59;4957361;28;20533;-91
2024/01/02 10:06:04;;;;;;;0.20;0.20;;;;;;;12.16;42.01;101239.78;4938291;29;20034;-91
2024/01/02 10:09:05;;;;;;;0.20;0.20;;;;;;;12.23;42.48;101225.63;4919630;29;20067;-92
2024/01/02 10:11:43;;;;;;;0.20;0.20;;;;;;;12.10;41.31;101216.75;4925901;29;20492;-87
2024/01/02 10:14:31;;;;;;;0.20;0.20;;;;;;;12.30;40.72;101216.66;4952749;29;20433;-90
2024/01/02 10:16:56;;;;;;;0.20;0.20;;;;;;;12.34;40.79;101207.81;4950484;28;20031;-90
2024/01/02 10:19:31;;;;;;;0.20;0.20;;;;;;;12.32;40.28;101199.25;4954901;28;20058;-89
2024/01/02 10:22:38;;;;;;;0.20;0.20;;;;;;;12.51;39.90;101208.78;4951064;28;20420;-91
2024/01/02 10:25:08;;;;;;;0.20;0.20;;;;;;;12.53;39.99;101207.78;4893452;29;20507;-89
2024/01/02 10:27:48;;;;;;;0.20;0.20;;;;;;;12.53;39.74;101201.75;4876044;29;20040;-87
2024/01/02 10:30:21;;;;;;;0.20;0.20;;;;;;;12.35;40.25;101159.34;4925230;28;20865;-86
2024/01/02 10:33:09;;;;;;;0.20;0.20;;;;;;;12.57;39.58;101193.72;4934631;29;20042;-91
2024/01/02 10:35:44;;;;;;;0.20;0.20;;;;;;;12.46;39.77;101182.19;4932340;29;20039;-87
2024/01/02 10:38:13;;;;;;;0.20;0.20;;;;;;;12.46;39.65;101184.78;4967999;28;20035;-88
2024/01/02 10:40:41;;;;;;;0.10;0.10;;;;;;;12.56;40.17;101193.81;4952898;29;20106;-92
2024/01/02 10:43:27;;;;;;;0.10;0.10;;;;;;;12.70;39.46;101190.56;4951941;29;20112;-91
2024/01/02 10:46:10;;;;;;;0.20;0.20;;;;;;;12.83;39.03;101199.41;4941201;29;20173;-91
2024/01/02 10:48:54;;;;;;;0.20;0.20;;;;;;;12.87;39.76;101186.19;4933518;29;20035;-88
2024/01/02 10:51:31;;;;;;;0.10;0.10;;;;;;;12.82;38.15;101177.81;4934659;29;20099;-85
2024/01/02 10:54:06;;;;;;;0.10;0.10;;;;;;;12.89;39.07;101167.97;4917617;29;20023;-84
2024/01/02 10:56:41;;;;;;;0.20;0.20;;;;;;;12.96;38.45;101178.88;4917369;29;20064;-88
2024/01/02 10:59:51;;;;;;;0.20;0.20;;;;;;;13.01;38.63;101172.53;4932093;29;20035;-90
2024/01/02 11:02:42;;;;;;;0.20;0.20;;;;;;;12.83;38.76;101158.72;4932818;29;20118;-87
2024/01/02 11:05:30;;;;;;;0.10;0.10;;;;;;;12.98;39.14;101158.84;4901399;29;20032;-89
2024/01/02 11:08:06;;;;;;;0.10;0.10;;;;;;;13.00;38.66;101157.03;4933984;29;20075;-87
2024/01/02 11:10:36;;;;;;;0.20;0.20;;;;;;;13.04;38.20;101158.56;4951192;29;20046;-89
2024/01/02 11:13:03;;;;;;;0.20;0.20;;;;;;;13.08;38.32;101167.88;4951498;28;20051;-92
2024/01/02 11:15:29;;;;;;;0.20;0.20;;;;;;;13.22;37.39;101155.06;4937761;29;20031;-91
2024/01/02 11:17:57;;;;;;;0.20;0.20;;;;;;;13.17;37.34;101146.59;4910002;29;20031;-87
2024/01/02 11:20:30;;;;;;;0.20;0.20;;;;;;;13.14;37.18;101157.16;4935676;29;20116;-88
2024/01/02 11:23:02;;;;;;;0.20;0.20;;;;;;;13.20;36.83;101141.31;4936453;29;20035;-93
2024/01/02 11:25:29;;;;;;;0.20;0.20;;;;;;;13.18;38.06;101143.13;4937743;29;20086;-91
2024/01/02 11:27:54;;;;;;;0.20;0.20;;;;;;;13.13;38.08;101113.94;4953740;28;20117;-91
2024/01/02 11:30:20;;;;;;;0.20;0.20;;;;;;;13.34;36.83;101131.03;4952580;29;20063;-87
2024/01/02 11:33:12;;;;;;;0.20;0.20;;;;;;;13.42;36.72;101141.03;4950768;29;20099;-90
2024/01/02 11:35:54;;;;;;;0.20;0.20;;;;;;;13.35;36.94;101132.69;4942647;29;20043;-91